createdAt,value
2022-09-17T00:01:24.925Z,95975.03
2022-09-17T00:03:55.627Z,95981.34
2022-09-17T00:06:24.602Z,95990.47
2022-09-17T00:08:53.380Z,95993.69
2022-09-17T00:11:25.587Z,95996.53
2022-09-17T00:13:53.914Z,95988.00
2022-09-17T00:16:36.138Z,96002.16
2022-09-17T00:19:05.516Z,96005.19
2022-09-17T00:21:32.465Z,95999.28
2022-09-17T00:24:03.247Z,95999.66
2022-09-17T00:26:31.737Z,95998.84
2022-09-17T00:28:59.585Z,95994.34
2022-09-17T00:31:28.386Z,95991.91
2022-09-17T00:33:55.359Z,95984.59
2022-09-17T00:36:22.411Z,95981.94
2022-09-17T00:38:54.959Z,95978.97
2022-09-17T00:41:23.308Z,95977.94
2022-09-17T00:43:53.295Z,95976.50
2022-09-17T00:46:45.341Z,95976.22
2022-09-17T00:49:26.788Z,95982.28
2022-09-17T00:52:02.130Z,95982.69
2022-09-17T00:54:29.182Z,95983.16
2022-09-17T00:56:56.986Z,95980.72
2022-09-17T00:59:24.524Z,95986.78
2022-09-17T01:01:51.350Z,95983.19
2022-09-17T01:04:26.163Z,95981.56
2022-09-17T01:07:39.864Z,95989.28
2022-09-17T01:10:56.491Z,95992.13
2022-09-17T01:14:02.968Z,95996.97
2022-09-17T01:16:55.610Z,96006.75
2022-09-17T01:19:33.320Z,96007.13
2022-09-17T01:22:31.430Z,96004.31
2022-09-17T01:25:18.899Z,96011.75
2022-09-17T01:28:15.095Z,96003.47
2022-09-17T01:31:25.925Z,96007.09
2022-09-17T01:34:03.558Z,95998.59
2022-09-17T01:37:00.816Z,96001.81
2022-09-17T01:39:54.779Z,95990.00
2022-09-17T01:42:42.838Z,95998.56
2022-09-17T01:45:28.034Z,95995.28
2022-09-17T01:48:07.675Z,96000.34
2022-09-17T01:50:47.010Z,96002.00
2022-09-17T01:53:16.770Z,95997.34
2022-09-17T01:55:45.763Z,95991.66
2022-09-17T01:58:35.459Z,95988.00
2022-09-17T02:01:06.423Z,95996.50
2022-09-17T02:03:43.861Z,95994.88
2022-09-17T02:06:16.849Z,95998.56
2022-09-17T02:08:54.879Z,96005.88
2022-09-17T02:11:21.859Z,96008.91
2022-09-17T02:14:02.332Z,96005.50
2022-09-17T02:16:34.485Z,96009.31
2022-09-17T02:19:18.267Z,95997.78
2022-09-17T02:21:56.681Z,96005.06
2022-09-17T02:25:33.925Z,96001.00
2022-09-17T02:28:25.286Z,95992.91
2022-09-17T02:30:52.168Z,95993.94
2022-09-17T02:33:20.398Z,95987.22
2022-09-17T02:35:47.439Z,95994.94
2022-09-17T02:38:27.171Z,95987.47
2022-09-17T02:41:10.983Z,95990.09
2022-09-17T02:44:18.619Z,95984.84
2022-09-17T02:47:27.959Z,95981.59
2022-09-17T02:50:11.866Z,95978.38
2022-09-17T02:53:06.043Z,95981.59
2022-09-17T02:55:43.063Z,95980.38
2022-09-17T02:58:26.880Z,95973.13
2022-09-17T03:00:57.686Z,95965.06
2022-09-17T03:03:39.871Z,95961.84
2022-09-17T03:06:06.846Z,95954.56
2022-09-17T03:08:41.249Z,95959.44
2022-09-17T03:11:10.070Z,95955.81
2022-09-17T03:13:37.222Z,95951.38
2022-09-17T03:16:05.188Z,95943.31
2022-09-17T03:18:32.368Z,95940.47
2022-09-17T03:20:59.510Z,95936.44
2022-09-17T03:23:27.882Z,95937.66
2022-09-17T03:25:55.242Z,95931.97
2022-09-17T03:28:22.507Z,95924.72
2022-09-17T03:30:49.311Z,95921.06
2022-09-17T03:33:16.406Z,95929.63
2022-09-17T03:35:44.968Z,95915.03
2022-09-17T03:38:13.000Z,95917.88
2022-09-17T03:40:40.582Z,95930.00
2022-09-17T03:43:07.550Z,95927.59
2022-09-17T03:45:34.406Z,95935.69
2022-09-17T03:48:01.416Z,95949.81
2022-09-17T03:50:28.914Z,95945.59
2022-09-17T03:52:55.724Z,95952.28
2022-09-17T03:55:22.496Z,95949.03
2022-09-17T03:57:49.514Z,95954.66
2022-09-17T04:00:17.367Z,95947.81
2022-09-17T04:02:44.393Z,95948.84
2022-09-17T04:05:11.324Z,95944.16
2022-09-17T04:07:41.000Z,95941.34
2022-09-17T04:10:08.787Z,95945.19
2022-09-17T04:12:35.788Z,95948.63
2022-09-17T04:15:02.922Z,95938.91
2022-09-17T04:17:29.695Z,95936.53
2022-09-17T04:19:56.465Z,95942.97
2022-09-17T04:22:23.307Z,95939.34
2022-09-17T04:24:50.227Z,95946.59
2022-09-17T04:27:17.071Z,95945.59
2022-09-17T04:29:43.850Z,95937.34
2022-09-17T04:32:10.629Z,95942.97
2022-09-17T04:34:37.546Z,95946.59
2022-09-17T04:37:04.402Z,95949.03
2022-09-17T04:39:31.134Z,95946.19
2022-09-17T04:41:57.881Z,95955.69
2022-09-17T04:44:24.722Z,95964.56
2022-09-17T04:46:51.532Z,95967.19
2022-09-17T04:49:18.347Z,95968.41
2022-09-17T04:51:45.101Z,95965.97
2022-09-17T04:54:11.847Z,95962.75
2022-09-17T04:56:38.606Z,95964.16
2022-09-17T04:59:05.411Z,95969.22
2022-09-17T05:01:32.171Z,95978.53
2022-09-17T05:03:59.055Z,95989.81
2022-09-17T05:06:25.866Z,96010.44
2022-09-17T05:08:52.635Z,96013.06
2022-09-17T05:11:19.394Z,96024.56
2022-09-17T05:13:46.159Z,96048.41
2022-09-17T05:16:12.986Z,96063.78
2022-09-17T05:18:39.777Z,96074.13
2022-09-17T05:21:06.514Z,96080.56
2022-09-17T05:23:33.433Z,96086.03
2022-09-17T05:26:01.089Z,96077.94
2022-09-17T05:28:28.672Z,96076.72
2022-09-17T05:30:59.158Z,96080.75
2022-09-17T05:33:26.340Z,96083.78
2022-09-17T05:35:53.450Z,96097.34
2022-09-17T05:38:20.352Z,96098.53
2022-09-17T05:40:48.945Z,96101.16
2022-09-17T05:43:16.154Z,96114.75
2022-09-17T05:45:42.934Z,96123.63
2022-09-17T05:48:15.365Z,96121.75
2022-09-17T05:50:43.236Z,96123.38
2022-09-17T05:53:13.895Z,96128.25
2022-09-17T05:55:40.875Z,96123.63
2022-09-17T05:58:11.864Z,96119.38
2022-09-17T06:00:39.611Z,96119.56
2022-09-17T06:03:06.453Z,96113.50
2022-09-17T06:05:33.285Z,96123.19
2022-09-17T06:08:00.088Z,96128.06
2022-09-17T06:10:26.835Z,96138.16
2022-09-17T06:12:58.390Z,96128.06
2022-09-17T06:15:26.663Z,96121.97
2022-09-17T06:17:53.696Z,96125.59
2022-09-17T06:20:21.260Z,96128.41
2022-09-17T06:22:48.112Z,96121.53
2022-09-17T06:25:15.156Z,96117.88
2022-09-17T06:27:42.026Z,96119.72
2022-09-17T06:30:09.087Z,96122.53
2022-09-17T06:32:35.859Z,96115.59
2022-09-17T06:35:03.153Z,96117.41
2022-09-17T06:37:32.482Z,96117.75
2022-09-17T06:39:59.724Z,96115.75
2022-09-17T06:42:28.443Z,96126.25
2022-09-17T06:44:55.196Z,96124.00
2022-09-17T06:47:25.160Z,96115.72
2022-09-17T06:49:52.671Z,96112.91
2022-09-17T06:52:19.417Z,96111.28
2022-09-17T06:54:46.195Z,96104.72
2022-09-17T06:57:12.949Z,96107.09
2022-09-17T06:59:39.758Z,96110.38
2022-09-17T07:02:06.803Z,96105.72
2022-09-17T07:04:33.590Z,96098.81
2022-09-17T07:07:00.339Z,96098.44
2022-09-17T07:09:27.108Z,96100.94
2022-09-17T07:11:53.871Z,96105.22
2022-09-17T07:14:21.077Z,96102.75
2022-09-17T07:16:47.919Z,96105.50
2022-09-17T07:19:15.028Z,96091.16
2022-09-17T07:21:42.054Z,96089.56
2022-09-17T07:24:08.886Z,96078.84
2022-09-17T07:26:35.691Z,96066.03
2022-09-17T07:29:02.469Z,96060.72
2022-09-17T07:31:29.368Z,96073.81
2022-09-17T07:33:56.165Z,96081.16
2022-09-17T07:36:22.935Z,96074.31
2022-09-17T07:38:49.670Z,96071.81
2022-09-17T07:41:18.103Z,96060.94
2022-09-17T07:43:45.458Z,96062.97
2022-09-17T07:46:18.538Z,96072.34
2022-09-17T07:48:46.679Z,96074.59
2022-09-17T07:51:23.169Z,96068.50
2022-09-17T07:53:54.825Z,96070.41
2022-09-17T07:56:22.641Z,96071.53
2022-09-17T07:58:50.046Z,96057.13
2022-09-17T08:01:17.854Z,96069.09
2022-09-17T08:03:50.448Z,96074.16
2022-09-17T08:06:21.727Z,96072.16
2022-09-17T08:08:49.288Z,96080.91
2022-09-17T08:14:12.878Z,96081.22
2022-09-17T08:16:39.907Z,96087.28
2022-09-17T08:19:07.163Z,96082.81
2022-09-17T08:21:33.902Z,96091.16
2022-09-17T08:24:00.823Z,96093.69
2022-09-17T08:26:27.871Z,96092.63
2022-09-17T08:28:56.449Z,96100.78
2022-09-17T08:31:26.702Z,96101.25
2022-09-17T08:33:53.545Z,96100.56
2022-09-17T08:36:22.583Z,96096.06
2022-09-17T08:38:54.147Z,96092.97
2022-09-17T08:41:41.467Z,96100.06
2022-09-17T08:44:33.328Z,96110.47
2022-09-17T08:47:11.399Z,96117.75
2022-09-17T08:49:51.483Z,96118.22
2022-09-17T08:52:39.122Z,96126.72
2022-09-17T08:55:33.827Z,96131.50
2022-09-17T08:58:53.186Z,96135.41
2022-09-17T09:01:44.337Z,96152.75
2022-09-17T09:04:58.613Z,96154.81
2022-09-17T09:07:31.603Z,96159.56
2022-09-17T09:10:11.703Z,96166.59
2022-09-17T09:12:40.685Z,96163.22
2022-09-17T09:15:35.580Z,96162.13
2022-09-17T09:18:22.577Z,96165.66
2022-09-17T09:21:14.614Z,96178.38
2022-09-17T09:23:59.623Z,96172.25
2022-09-17T09:26:45.064Z,96171.97
2022-09-17T09:29:43.171Z,96177.91
2022-09-17T09:32:39.542Z,96180.09
2022-09-17T09:35:18.141Z,96190.97
2022-09-17T09:38:12.690Z,96182.13
2022-09-17T09:41:08.716Z,96187.56
2022-09-17T09:44:02.552Z,96186.97
2022-09-17T09:46:38.372Z,96193.91
2022-09-17T09:49:22.850Z,96199.63
2022-09-17T09:52:10.618Z,96192.50
2022-09-17T09:55:07.834Z,96195.06
2022-09-17T09:57:47.816Z,96197.53
2022-09-17T10:00:43.540Z,96200.75
2022-09-17T10:03:20.599Z,96194.66
2022-09-17T10:06:03.158Z,96192.97
2022-09-17T10:08:40.062Z,96190.78
2022-09-17T10:11:13.032Z,96187.72
2022-09-17T10:13:40.739Z,96187.91
2022-09-17T10:16:25.322Z,96173.09
2022-09-17T10:19:07.619Z,96176.13
2022-09-17T10:21:39.447Z,96180.16
2022-09-17T10:24:31.899Z,96173.94
2022-09-17T10:27:05.897Z,96176.22
2022-09-17T10:29:34.154Z,96175.47
2022-09-17T10:32:01.424Z,96173.72
2022-09-17T10:34:32.809Z,96168.03
2022-09-17T10:36:59.804Z,96171.91
2022-09-17T10:39:46.598Z,96165.69
2022-09-17T10:42:18.900Z,96164.91
2022-09-17T10:45:00.840Z,96163.28
2022-09-17T10:47:34.398Z,96160.31
2022-09-17T10:50:05.679Z,96166.28
2022-09-17T10:52:38.414Z,96175.00
2022-09-17T10:55:25.955Z,96183.81
2022-09-17T10:58:09.698Z,96180.66
2022-09-17T11:01:07.511Z,96177.88
2022-09-17T11:03:39.686Z,96175.59
2022-09-17T11:06:28.037Z,96173.84
2022-09-17T11:09:47.238Z,96173.22
2022-09-17T11:12:56.803Z,96169.19
2022-09-17T11:15:39.770Z,96159.56
2022-09-17T11:18:36.787Z,96168.53
2022-09-17T11:21:36.634Z,96162.31
2022-09-17T11:24:25.236Z,96171.97
2022-09-17T11:28:01.199Z,96174.13
2022-09-17T11:30:49.450Z,96175.63
2022-09-17T11:33:38.456Z,96173.66
2022-09-17T11:36:18.225Z,96168.94
2022-09-17T11:38:53.400Z,96158.78
2022-09-17T11:41:31.685Z,96152.88
2022-09-17T11:44:22.794Z,96149.75
2022-09-17T11:47:01.287Z,96144.91
2022-09-17T11:50:09.159Z,96143.53
2022-09-17T11:52:44.351Z,96140.31
2022-09-17T11:55:38.167Z,96147.50
2022-09-17T11:58:40.162Z,96143.69
2022-09-17T12:01:17.079Z,96141.44
2022-09-17T12:04:03.258Z,96139.00
2022-09-17T12:06:49.313Z,96129.44
2022-09-17T12:09:26.001Z,96126.41
2022-09-17T12:12:47.583Z,96121.91
2022-09-17T12:15:33.370Z,96114.03
2022-09-17T12:18:39.536Z,96139.19
2022-09-17T12:21:08.800Z,96120.53
2022-09-17T12:23:46.889Z,96117.56
2022-09-17T12:26:32.542Z,96111.09
2022-09-17T12:29:07.863Z,96107.06
2022-09-17T12:32:15.290Z,96107.09
2022-09-17T12:35:18.738Z,96096.31
2022-09-17T12:38:09.890Z,96098.72
2022-09-17T12:40:41.248Z,96091.53
2022-09-17T12:43:39.440Z,96089.88
2022-09-17T12:46:28.347Z,96092.81
2022-09-17T12:49:15.712Z,96096.38
2022-09-17T12:52:03.272Z,96092.28
2022-09-17T12:54:59.059Z,96090.78
2022-09-17T12:57:52.843Z,96090.06
2022-09-17T13:00:19.863Z,96089.34
2022-09-17T13:03:11.551Z,96071.38
2022-09-17T13:06:31.416Z,96068.69
2022-09-17T13:09:19.281Z,96075.22
2022-09-17T13:12:04.501Z,96078.50
2022-09-17T13:18:13.306Z,96075.53
2022-09-17T13:21:20.235Z,96076.56
2022-09-17T13:23:50.287Z,96049.34
2022-09-17T13:26:20.412Z,96045.97
2022-09-17T13:28:50.504Z,96051.03
2022-09-17T13:31:44.392Z,96047.94
2022-09-17T13:34:17.262Z,96046.25
2022-09-17T13:36:50.336Z,96040.06
2022-09-17T13:39:44.066Z,96041.72
2022-09-17T13:42:37.128Z,96048.88
2022-09-17T13:45:13.208Z,96048.34
2022-09-17T13:47:55.064Z,96057.38
2022-09-17T13:50:27.899Z,96058.19
2022-09-17T13:52:58.418Z,96066.13
2022-09-17T13:55:48.055Z,96064.56
2022-09-17T13:58:20.751Z,96063.13
2022-09-17T14:01:07.649Z,96061.16
2022-09-17T14:03:48.374Z,96056.59
2022-09-17T14:06:15.046Z,96043.47
2022-09-17T14:08:45.073Z,96047.59
2022-09-17T14:11:33.406Z,96046.91
2022-09-17T14:14:03.029Z,96042.47
2022-09-17T14:16:36.789Z,96051.13
2022-09-17T14:19:30.358Z,96058.22
2022-09-17T14:22:06.418Z,96052.88
2022-09-17T14:24:52.376Z,96052.03
2022-09-17T14:27:44.127Z,96060.50
2022-09-17T14:30:23.264Z,96043.84
2022-09-17T14:33:09.069Z,96043.56
2022-09-17T14:35:46.611Z,96047.22
2022-09-17T14:38:21.952Z,96053.03
2022-09-17T14:41:09.315Z,96047.41
2022-09-17T14:43:54.736Z,96066.09
2022-09-17T14:46:39.678Z,96056.19
2022-09-17T14:49:26.563Z,96056.22
2022-09-17T14:51:54.921Z,96075.00
2022-09-17T14:54:35.172Z,96077.31
2022-09-17T14:57:19.548Z,96090.94
2022-09-17T14:59:53.059Z,96088.09
2022-09-17T15:02:26.820Z,96110.34
2022-09-17T15:04:53.957Z,96108.97
2022-09-17T15:07:21.934Z,96111.03
2022-09-17T15:09:50.433Z,96121.97
2022-09-17T15:12:19.045Z,96107.84
2022-09-17T15:14:47.837Z,96107.47
2022-09-17T15:17:21.447Z,96114.59
2022-09-17T15:19:54.342Z,96113.31
2022-09-17T15:22:28.563Z,96113.94
2022-09-17T15:25:04.585Z,96116.31
2022-09-17T15:27:41.807Z,96115.44
2022-09-17T15:30:20.143Z,96114.66
2022-09-17T15:33:00.382Z,96114.59
2022-09-17T15:35:32.307Z,96120.94
2022-09-17T15:38:23.701Z,96122.13
2022-09-17T15:40:51.613Z,96116.56
2022-09-17T15:43:33.891Z,96121.03
2022-09-17T15:46:32.532Z,96120.56
2022-09-17T15:49:02.190Z,96123.53
2022-09-17T15:51:32.217Z,96112.69
2022-09-17T15:54:04.837Z,96123.22
2022-09-17T15:56:34.706Z,96128.53
2022-09-17T15:59:04.709Z,96121.66
2022-09-17T16:01:37.983Z,96122.75
2022-09-17T16:04:27.447Z,96135.34
2022-09-17T16:07:17.964Z,96139.81
2022-09-17T16:09:52.717Z,96128.66
2022-09-17T16:12:23.526Z,96137.06
2022-09-17T16:14:54.449Z,96136.47
2022-09-17T16:17:44.830Z,96137.53
2022-09-17T16:20:24.796Z,96136.63
2022-09-17T16:22:53.366Z,96133.03
2022-09-17T16:25:25.139Z,96135.41
2022-09-17T16:28:08.231Z,96132.84
2022-09-17T16:30:34.998Z,96143.91
2022-09-17T16:33:03.800Z,96127.84
2022-09-17T16:35:30.566Z,96144.22
2022-09-17T16:37:57.876Z,96143.25
2022-09-17T16:40:28.157Z,96144.81
2022-09-17T16:42:55.244Z,96139.09
2022-09-17T16:45:25.380Z,96151.91
2022-09-17T16:47:54.920Z,96155.13
2022-09-17T16:50:21.681Z,96157.34
2022-09-17T16:52:49.347Z,96158.94
2022-09-17T16:55:18.175Z,96160.84
2022-09-17T16:57:45.564Z,96153.88
2022-09-17T17:00:17.088Z,96156.56
2022-09-17T17:02:44.821Z,96168.75
2022-09-17T17:05:11.778Z,96161.47
2022-09-17T17:07:38.600Z,96172.91
2022-09-17T17:10:08.914Z,96170.91
2022-09-17T17:12:36.827Z,96178.19
2022-09-17T17:15:06.107Z,96177.09
2022-09-17T17:17:35.590Z,96177.09
2022-09-17T17:20:07.726Z,96179.13
2022-09-17T17:22:34.513Z,96186.88
2022-09-17T17:25:01.361Z,96187.06
2022-09-17T17:27:29.187Z,96182.16
2022-09-17T17:29:55.999Z,96190.47
2022-09-17T17:32:22.781Z,96198.25
2022-09-17T17:34:50.525Z,96191.22
2022-09-17T17:37:17.790Z,96194.13
2022-09-17T17:39:44.562Z,96198.13
2022-09-17T17:42:11.304Z,96203.03
2022-09-17T17:44:38.087Z,96202.81
2022-09-17T17:47:06.570Z,96214.41
2022-09-17T17:49:33.803Z,96213.03
2022-09-17T17:52:01.218Z,96217.25
2022-09-17T17:54:28.930Z,96219.41
2022-09-17T17:56:56.325Z,96219.59
2022-09-17T17:59:23.386Z,96221.84
2022-09-17T18:01:50.289Z,96233.56
2022-09-17T18:04:17.259Z,96242.97
2022-09-17T18:06:44.040Z,96246.16
2022-09-17T18:09:10.779Z,96246.97
2022-09-17T18:11:37.534Z,96251.84
2022-09-17T18:14:04.343Z,96257.94
2022-09-17T18:16:31.154Z,96250.22
2022-09-17T18:19:01.200Z,96269.88
2022-09-17T18:21:28.197Z,96268.66
2022-09-17T18:23:54.972Z,96264.78
2022-09-17T18:26:27.418Z,96278.97
2022-09-17T18:28:54.919Z,96276.53
2022-09-17T18:31:34.304Z,96275.53
2022-09-17T18:34:02.433Z,96285.88
2022-09-17T18:36:33.165Z,96280.59
2022-09-17T18:39:32.813Z,96289.50
2022-09-17T18:41:51.114Z,96282.19
2022-09-17T18:44:20.593Z,96282.59
2022-09-17T18:46:49.410Z,96290.31
2022-09-17T18:49:16.240Z,96277.34
2022-09-17T18:51:43.176Z,96292.53
2022-09-17T18:54:12.472Z,96290.13
2022-09-17T18:56:41.349Z,96290.50
2022-09-17T18:59:09.067Z,96290.13
2022-09-17T19:01:36.163Z,96293.53
2022-09-17T19:04:03.500Z,96293.13
2022-09-17T19:06:32.035Z,96295.94
2022-09-17T19:09:03.796Z,96291.13
2022-09-17T19:11:30.587Z,96284.00
2022-09-17T19:13:57.506Z,96284.41
2022-09-17T19:16:24.375Z,96289.47
2022-09-17T19:18:51.402Z,96286.25
2022-09-17T19:21:21.477Z,96290.31
2022-09-17T19:23:50.782Z,96277.34
2022-09-17T19:26:23.984Z,96274.09
2022-09-17T19:29:00.276Z,96279.59
2022-09-17T19:31:28.024Z,96282.22
2022-09-17T19:33:56.446Z,96277.34
2022-09-17T19:36:23.204Z,96268.44
2022-09-17T19:38:50.018Z,96276.53
2022-09-17T19:41:20.176Z,96280.97
2022-09-17T19:43:47.736Z,96289.88
2022-09-17T19:46:24.269Z,96294.94
2022-09-17T19:48:54.106Z,96288.25
2022-09-17T19:51:24.159Z,96289.91
2022-09-17T19:53:52.113Z,96285.44
2022-09-17T19:56:24.470Z,96285.44
2022-09-17T19:58:51.691Z,96286.25
2022-09-17T20:01:20.051Z,96290.72
2022-09-17T20:03:47.355Z,96287.88
2022-09-17T20:06:17.114Z,96294.34
2022-09-17T20:08:49.604Z,96303.25
2022-09-17T20:11:18.366Z,96295.38
2022-09-17T20:13:45.447Z,96289.91
2022-09-17T20:16:19.991Z,96299.22
2022-09-17T20:18:47.598Z,96297.19
2022-09-17T20:21:20.827Z,96314.16
2022-09-17T20:23:47.677Z,96314.63
2022-09-17T20:26:15.838Z,96321.47
2022-09-17T20:28:43.539Z,96307.31
2022-09-17T20:31:20.441Z,96302.88
2022-09-17T20:33:50.470Z,96288.28
2022-09-17T20:36:19.783Z,96291.28
2022-09-17T20:41:35.967Z,96294.75
2022-09-17T20:44:02.940Z,96277.97
2022-09-17T20:46:29.980Z,96293.69
2022-09-17T20:48:58.239Z,96290.91
2022-09-17T20:51:28.394Z,96289.47
2022-09-17T20:53:56.998Z,96287.00
2022-09-17T20:56:26.997Z,96293.91
2022-09-17T20:59:13.531Z,96293.56
2022-09-17T21:01:42.923Z,96290.31
2022-09-17T21:04:10.179Z,96303.28
2022-09-17T21:06:41.025Z,96299.22
2022-09-17T21:09:15.565Z,96313.56
2022-09-17T21:11:47.395Z,96312.97
2022-09-17T21:14:15.899Z,96309.94
2022-09-17T21:16:43.260Z,96318.84
2022-09-17T21:19:12.472Z,96305.69
2022-09-17T21:21:39.250Z,96304.84
2022-09-17T21:24:09.179Z,96291.03
2022-09-17T21:26:36.220Z,96288.69
2022-09-17T21:29:03.367Z,96294.34
2022-09-17T21:31:33.653Z,96297.56
2022-09-17T21:34:04.356Z,96303.81
2022-09-17T21:36:35.088Z,96311.91
2022-09-17T21:39:10.584Z,96310.47
2022-09-17T21:41:41.559Z,96305.22
2022-09-17T21:44:10.559Z,96307.66
2022-09-17T21:46:38.062Z,96310.09
2022-09-17T21:49:05.543Z,96305.38
2022-09-17T21:51:41.994Z,96305.22
2022-09-17T21:54:12.704Z,96311.31
2022-09-17T21:56:39.854Z,96306.03
2022-09-17T21:59:09.103Z,96292.25
2022-09-17T22:01:40.316Z,96296.31
2022-09-17T22:04:15.780Z,96296.31
2022-09-17T22:06:44.117Z,96297.13
2022-09-17T22:09:30.262Z,96299.53
2022-09-17T22:11:57.030Z,96291.81
2022-09-17T22:14:25.265Z,96298.72
2022-09-17T22:16:56.734Z,96294.97
2022-09-17T22:19:24.550Z,96301.09
2022-09-17T22:21:54.480Z,96309.16
2022-09-17T22:24:22.316Z,96297.75
2022-09-17T22:26:57.309Z,96306.66
2022-09-17T22:29:27.234Z,96296.25
2022-09-17T22:31:54.054Z,96297.13
2022-09-17T22:34:22.930Z,96306.66
2022-09-17T22:36:50.351Z,96308.22
2022-09-17T22:39:20.464Z,96296.22
2022-09-17T22:41:47.979Z,96310.97
2022-09-17T22:44:20.036Z,96313.91
2022-09-17T22:46:50.513Z,96301.31
2022-09-17T22:49:19.120Z,96307.97
2022-09-17T22:51:47.195Z,96313.03
2022-09-17T22:54:17.371Z,96304.47
2022-09-17T22:56:45.461Z,96300.81
2022-09-17T22:59:12.922Z,96315.09
2022-09-17T23:01:40.896Z,96307.81
2022-09-17T23:04:07.842Z,96315.09
2022-09-17T23:06:38.202Z,96310.66
2022-09-17T23:09:05.407Z,96319.16
2022-09-17T23:11:35.549Z,96323.16
2022-09-17T23:14:05.574Z,96320.75
2022-09-17T23:16:44.638Z,96315.47
2022-09-17T23:19:12.589Z,96331.22
2022-09-17T23:21:39.868Z,96329.25
2022-09-17T23:24:07.566Z,96342.16
2022-09-17T23:26:34.684Z,96338.47
2022-09-17T23:29:05.225Z,96340.88
2022-09-17T23:31:34.714Z,96340.91
2022-09-17T23:34:02.067Z,96345.34
2022-09-17T23:36:35.752Z,96336.84
2022-09-17T23:39:04.196Z,96345.72
2022-09-17T23:41:36.924Z,96345.34
2022-09-17T23:44:12.094Z,96344.09
2022-09-17T23:46:42.010Z,96344.50
2022-09-17T23:49:11.699Z,96348.97
2022-09-17T23:51:38.744Z,96355.31
2022-09-17T23:54:06.960Z,96351.50
2022-09-17T23:56:34.402Z,96355.72
2022-09-17T23:59:02.374Z,96361.38
